首页
METAR-TAF:

METAR-TAF

机场 :

蒂瓦特機場

蒂瓦特, 蒙特內哥羅

纬度: 42-24N, 经度: 018-44E, 海拔: 5米

当前天气观测

该预报发布于24分钟前的00:00 UTC
风速2节,风向多变
温度 10°C
湿度 100%
气压 1014 hPa
能见度10公里或以上
少量云层高于5000英尺

METAR: LYTV 010000Z VRB02KT 9999 FEW050 10/10 Q1014

时间: 02:24 (00:24 UTC)

预报

该预报发布于1小时和24分钟前的23:00 UTC
预报有效从01日的 00点(UTC)到 01日的 24点(UTC)
风速5节,风向北转东北
能见度10公里或以上
少量云层高于4000英尺

TAF: LYTV 312300Z 0100/0124 02005KT 9999 FEW040 TX22/0113Z TN08/0103Z

超过4000个机场的气象观测和天气预报(METAR&TAF报告)。

可查询的气象台以黄色和红色小点在地图上表示。

将鼠标移到小点上方,可查看气象台名称。

然后点击查看天气观测和预报。

如需切换地图:点击带黑十字的绿色按钮放大地图;点击带横线的绿色按钮缩小地图;或者点击绿色箭头查看邻近地区的地图。


METAR-TAF: